NWS Home NWS Lubbock West Texas Mesonet Latest Conditions as of 1215 AM, Thu Jan 29, 2015

Latest   N   C   S   Daily Sum   3hrΔ   24hrΔ   Soil Data 
Site Map   24hr Precip   72hr Precip   Google Plot


Station Time of Last Temp Dew Pt. RH Wind Direction Wind Speed Wind Gust Max Wind Max Temp Min Temp Max RH Min RH Altimeter 1HR Rain Today's Rain Solar Rad
Abernathy 5ENE  12:10 AM 42 35 77% N68 11 mph 8° @ 1205 AM 42 41 78 77 30.16" 0 0.00 0
Aiken 3WSW  12:10 AM 39 32 77% W11 2 mph 311° @ 1201 AM 43 39 77 71 30.17" 0 0.00 0
Amarillo 15NNW   12:10 AM 49 34 57% NE1214 16 mph 43° @ 1201 AM 49 48 58 57 30.20" 0 0.00 0
Amarillo 7SSE  12:11 AM 45 34 67% N1212 14 mph 11° @ 1202 AM 45 42 73 67 30.20" 0 0.00 0
Amarillo 9NNE  12:10 AM 44 34 66% N67 7 mph 14° @ 1210 AM 45 43 67 66 30.20" 0 0.00 0
Amherst 1NE  12:10 AM 44 33 66% NW23 5 mph 360° @ 1205 AM 45 44 66 65 30.17" 0 0.00 0
Andrews 2E  12:10 AM 57 42 57% SW89 11 mph 223° @ 1205 AM 58 57 57 57 30.14" 0 0.00 0
Anton 6SSW  12:10 AM 40 33 78% W56 8 mph 280° @ 1205 AM 40 40 78 78 30.16" 0 0.00 0
Aspermont 3NE  12:10 AM 47 40 75% NW34 6 mph 312° @ 1205 AM 48 47 75 72 30.10" 0 0.00 0
Big Bend NP - Persimmon Gap  12:11 AM 64 43 46% NE1212 13 mph 29° @ 1205 AM 64 63 48 45 30.12" 0 0.00 0
Big Lake 1WNW  12:11 AM 54 38 54% S55 6 mph 181° @ 1206 AM 54 54 54 54 30.14" 0 0.00 0
Bootleg 11WNW  12:11 AM 40 32 75% NE89 9 mph 83° @ 1203 AM 42 40 75 70 30.20" 0 0.00 0
Brownfield 2S  12:05 AM 44 35 73% NW1012 12 mph 320° @ 1205 AM 44 44 73 73 30.14" 0 0.00 0
Canadian 6E  12:11 AM 52 33 48% NW912 16 mph 342° @ 1204 AM 54 52 48 46 30.15" 0 0.00 0
Caprock Canyons State Park  12:11 AM 47 35 64% NW45 6 mph 294° @ 1204 AM 48 47 64 60 30.14" 0 0.00 0
Clarendon 2WSW  12:10 AM 45 33 63% N67 7 mph 1° @ 1205 AM 45 44 67 63 30.15" 0 0.00 0
Claude 12SW  12:11 AM 47 33 57% N1415 15 mph 18° @ 1210 AM 48 47 57 53 30.17" 0 0.00 0
Coyanosa 2N  12:11 AM 49 45 87% N00 6 mph 47° @ 1201 AM 50 49 87 86 30.11" 0 0.00 0
Denver City 7WNW  12:10 AM 41 33 75% NW45 7 mph 318° @ 1205 AM 41 41 76 75 30.15" 0 0.00 0
Dimmitt 2NE  12:10 AM 46 32 60% E67 7 mph 75° @ 1210 AM 46 45 62 60 30.17" 0 0.00 0
Dora NM 2SW  12:10 AM 48 34 59% W1315 15 mph 267° @ 1210 AM 48 48 59 58 30.17" 0 0.00 0
Dozier 3W  12:11 AM 53 35 52% N1113 17 mph 351° @ 1201 AM 54 53 52 50 30.15" 0 0.00 0
Floydada 2NNE  12:10 AM 37 32 82% NW77 8 mph 286° @ 1205 AM 38 37 82 81 30.16" 0 0.00 0
Fluvanna 3WNW  12:10 AM 54 36 51% SW44 6 mph 211° @ 1205 AM 54 54 51 50 30.12" 0 0.00 0
Friona 2NE  12:10 AM 41 33 74% NE45 5 mph 53° @ 1210 AM 41 41 74 74 30.18" 0 0.00 0
Gail 2ESE  12:10 AM 48 38 70% NW12 3 mph 308° @ 1205 AM 48 48 70 70 30.12" 0 0.00 0
Goodlett 3W  12:10 AM 52 33 49% NW1112 12 mph 311° @ 1210 AM 52 51 51 49 30.07" 0 0.00 0
Goodnight  12:11 AM 47 33 57% N1214 14 mph 353° @ 1211 AM 49 47 57 53 30.18" 0 0.00 0
Graham 5SSW  12:10 AM 52 36 55% NW1415 15 mph 311° @ 1210 AM 52 52 55 54 30.12" 0 0.00 0
Guadalupe Mtns Natl Park  12:09 AM 54 30 39% W1317 17 mph 273° @ 1209 AM 54 54 39 37 30.23" 0 0.00 0
Guthrie 10WSW  12:10 AM 53 35 50% N44 5 mph 343° @ 1205 AM 53 53 50 50 30.10" 0 0.00 0
Hart 3N  12:10 AM 43 33 66% E710 11 mph 76° @ 1205 AM 44 43 66 66 30.17" 0 0.00 0
Haskell 1NW  12:10 AM 52 39 62% N910 11 mph 339° @ 1205 AM 52 52 63 62 30.08" 0 0.00 0
Hereford 2NW  12:10 AM 37 32 84% N12 3 mph 3° @ 1205 AM 37 36 84 83 30.17" 0 0.00 0
Hobbs NM 5NW  12:11 AM 44 36 73% W45 5 mph 258° @ 1210 AM 46 44 73 70 30.17" 0 0.00 0
Jayton 1SSE  12:10 AM 47 36 67% SW14 5 mph 212° @ 1205 AM 47 47 67 66 30.11" 0 0.00 0
Junction 1SSW  12:11 AM 44 38 80% S23 3 mph 209° @ 1203 AM 44 43 84 80 30.14" 0 0.00 0
Knox City 3NW  12:10 AM 45 39 79% SW34 4 mph 241° @ 1210 AM 45 45 81 79 30.09" 0 0.00 0
Lake Alan Henry 1NW  12:11 AM 53 37 54% W67 7 mph 252° @ 1208 AM 54 53 54 52 30.11" 0 0.00 0
Lamesa 2SE  12:10 AM 46 38 73% S516 16 mph 167° @ 1210 AM 47 46 73 71 30.15" 0 0.00 0
Levelland 4S  12:10 AM 42 33 72% NW56 6 mph 304° @ 1205 AM 42 41 73 72 30.15" 0 0.00 0
Lomax 1SSE  12:11 AM 55 43 64% S910 11 mph 196° @ 1207 AM 55 55 64 63 30.12" 0 0.00 0
Lubbock 3WNW TTU  12:10 AM 42 33 72% N34 4 mph 346° @ 1210 AM 42 42 72 70 30.16" 0 0.00 0
McLean 1E  12:10 AM 51 33 51% N1214 14 mph 359° @ 1210 AM 51 51 51 51 30.16" 0 0.00 0
Memphis 1NE  12:10 AM 50 34 55% N1115 15 mph 359° @ 1210 AM 51 50 55 53 30.12" 0 0.00 0
Mertzon 3NNE  12:11 AM 55 40 58% S89 11 mph 201° @ 1204 AM 55 55 58 57 30.13" 0 0.00 0
Morton 1ENE  12:10 AM 42 34 73% W78 8 mph 275° @ 1210 AM 42 42 74 73 30.16" 0 0.00 0
Muleshoe 2SSW  12:10 AM 39 34 82% N78 8 mph 4° @ 1205 AM 39 39 82 82 30.16" 0 0.00 0
Northfield 1S  12:10 AM 46 37 71% SW77 8 mph 245° @ 1205 AM 46 46 71 71 30.11" 0 0.00 0
O'Donnell 1N  12:10 AM 45 35 68% W78 10 mph 241° @ 1205 AM 46 45 68 68 30.14" 0 0.00 0
Odell 4ENE  12:11 AM 50 35 57% NW67 7 mph 323° @ 1206 AM 50 50 58 56 30.08" 0 0.00 0
Olton 6S  12:10 AM 43 33 70% NE57 7 mph 39° @ 1210 AM 43 40 75 70 30.16" 0 0.00 0
Paducah 10SW  12:10 AM 55 35 48% NW910 10 mph 296° @ 1210 AM 55 55 48 47 30.10" 0 0.00 0
Palo Duro Canyon State Park  12:11 AM 54 31 40% N67 7 mph 19° @ 1211 AM 55 54 40 40 30.18" 0 0.00 0
Pampa 2E  12:10 AM 46 34 63% N910 10 mph 19° @ 1210 AM 46 46 63 62 30.20" 0 0.00 0
Plains 3N  12:10 AM 43 35 75% NW1010 10 mph 321° @ 1210 AM 43 43 75 74 30.15" 0 0.00 0
Plainview 1S  12:10 AM 41 35 79% NW33 3 mph 319° @ 1210 AM 42 41 79 79 30.15" 0 0.00 0
Post 1NE  12:10 AM 51 37 58% W810 10 mph 284° @ 1210 AM 51 51 59 58 30.12" 0 0.00 0
Ralls 1SE  12:10 AM 44 34 68% NW34 8 mph 350° @ 1205 AM 48 44 68 57 30.15" 0 0.00 0
Reese Center  12:10 AM 43 35 73% NW89 10 mph 299° @ 1205 AM 43 43 73 72 30.15" 0 0.00 0
Roaring Springs 3N  12:10 AM 51 36 56% W910 10 mph 291° @ 1210 AM 51 51 56 55 30.13" 0 0.00 0
San Angelo 7NW  12:10 AM 59 38 46% SW23 3 mph 217° @ 1205 AM 59 59 46 45 30.11" 0 0.00 0
Seagraves 1SW  12:10 AM 45 36 71% N56 8 mph 1° @ 1205 AM 46 45 71 69 30.15" 0 0.00 0
Seminole 2NNE  12:10 AM 45 37 73% N89 10 mph 339° @ 1205 AM 45 45 74 73 30.14" 0 0.00 0
Seymour 3NW  12:10 AM 47 40 76% W44 5 mph 259° @ 1205 AM 48 47 76 75 30.07" 0 0.00 0
Silverton 7ESE  12:10 AM 42 32 67% N34 5 mph 13° @ 1205 AM 44 42 67 63 30.16" 0 0.00 0
Slaton 2NE  12:10 AM 47 33 58% NW58 8 mph 315° @ 1210 AM 49 47 58 56 30.14" 0 0.00 0
Snyder 3E  12:10 AM 55 42 61% S68 8 mph 178° @ 1205 AM 55 55 62 61 30.12" 0 0.00 0
Spur 1W  12:10 AM 45 36 70% N910 10 mph 340° @ 1205 AM 45 45 70 70 30.11" 0 0.00 0
St. Lawrence 5SW  12:10 AM 51 41 71% S1010 10 mph 181° @ 1205 AM 51 50 72 71 30.13" 0 0.00 0
Sterling City 4WSW  12:11 AM 61 39 43% S1113 17 mph 196° @ 1204 AM 62 61 43 42 30.12" 0 0.00 0
Sundown 8WSW  12:10 AM 45 35 69% NW88 9 mph 319° @ 1205 AM 45 44 70 69 30.15" 0 0.00 0
Sweetwater 11SW   12:10 AM 59 41 52% SW55 6 mph 226° @ 1204 AM 59 58 54 52 30.13" 0 0.00 0
Tahoka 3NNE  12:10 AM 47 35 64% W45 5 mph 249° @ 1209 AM 47 45 68 64 30.14" 0 0.00 0
Tarzan 2WNW  12:10 AM 49 42 79% NW66 6 mph 308° @ 1210 AM 50 49 79 77 30.13" 0 0.00 0
Tatum NM 2SW  12:10 AM 39 34 83% NW78 8 mph 319° @ 1205 AM 39 39 83 82 30.16" 0 0.00 0
Tulia 2ENE  12:10 AM 41 34 74% NW34 4 mph 318° @ 1210 AM 42 41 74 74 30.16" 0 0.00 0
Turkey 2WSW  12:10 AM 57 33 41% NW89 9 mph 315° @ 1205 AM 57 57 42 41 30.12" 0 0.00 0
Umbarger 3NNE  12:10 AM 44 34 69% NE44 4 mph 46° @ 1204 AM 44 41 74 69 30.18" 0 0.00 0
Wall 1E  12:10 AM 57 40 54% SW67 9 mph 231° @ 1205 AM 57 57 54 54 30.11" 0 0.00 0
Weinert 2NNE  12:11 AM 51 40 65% W67 7 mph 284° @ 1208 AM 52 51 66 65 30.09" 0 0.00 0
White River Lake 6NW  12:10 AM 53 34 50% N1314 14 mph 348° @ 1210 AM 53 53 50 50 30.12" 0 0.00 0
Wolfforth 6SSW  12:10 AM 48 36 62% NW1011 12 mph 310° @ 1205 AM 48 48 64 62 30.15" 0 0.00 0

West Texas Mesonet Home   Site Map/Menu  NWS Lubbock Soil Data  Daily Summary Page  24hr Precip  72hr Precip  Google Plot